Time;durP1;ratioP1;P1;durP2;ratioP2;P2;SDS_P1;SDS_P2;PMS_P1;PMS_P2;Temp;Humidity;BMP_temperature;BMP_pressure;BME280_temperature;BME280_humidity;BME280_pressure;Samples;Min_cycle;Max_cycle;Signal;HPM_P1;HPM_P2
2022/03/02 00:00:11;;;;;;;21.83;14.57;;;;;;;3.27;83.03;102395.03;2011230;29;20488;-59
2022/03/02 00:01:15;;;;;;;20.00;12.93;;;;;;;3.25;82.34;102396.72;2011181;29;20033;-60
2022/03/02 00:02:16;;;;;;;20.48;14.05;;;;;;;3.21;82.08;102402.69;2011200;29;20507;-59
2022/03/02 00:03:16;;;;;;;20.33;13.32;;;;;;;3.18;81.96;102397.50;2011230;29;20033;-60
2022/03/02 00:04:16;;;;;;;21.60;12.90;;;;;;;3.15;82.22;102394.88;2011075;29;20543;-59
2022/03/02 00:05:17;;;;;;;23.13;14.10;;;;;;;3.12;82.46;102398.28;2011188;29;20025;-60
2022/03/02 00:06:17;;;;;;;23.08;15.05;;;;;;;3.09;82.43;102395.66;2011169;29;20029;-59
2022/03/02 00:07:18;;;;;;;22.87;14.83;;;;;;;3.06;82.87;102393.91;2011142;29;20057;-59
2022/03/02 00:08:19;;;;;;;21.23;14.27;;;;;;;3.04;83.07;102398.16;2018152;29;20032;-59
2022/03/02 00:09:19;;;;;;;20.80;14.32;;;;;;;3.03;83.05;102391.28;2018181;29;20028;-59
2022/03/02 00:10:20;;;;;;;20.33;14.03;;;;;;;3.02;83.19;102399.88;2018194;29;20037;-59
2022/03/02 00:11:20;;;;;;;21.87;14.87;;;;;;;3.00;83.16;102396.38;2018206;29;20033;-59
2022/03/02 00:12:20;;;;;;;21.40;14.53;;;;;;;2.98;83.02;102397.22;2011127;29;20306;-60
2022/03/02 00:13:21;;;;;;;25.30;14.67;;;;;;;2.95;83.04;102400.63;2011233;29;20053;-59
2022/03/02 00:14:21;;;;;;;21.27;13.80;;;;;;;2.93;83.09;102399.72;2011097;29;20025;-59
2022/03/02 00:15:21;;;;;;;22.20;14.43;;;;;;;2.91;83.09;102406.56;2011054;29;20033;-60
2022/03/02 00:16:24;;;;;;;21.07;14.47;;;;;;;2.89;83.33;102397.94;2010977;29;20033;-59
2022/03/02 00:17:24;;;;;;;21.85;12.68;;;;;;;2.85;83.01;102399.63;2011020;29;20048;-59
2022/03/02 00:18:26;;;;;;;17.80;12.30;;;;;;;2.81;83.33;102406.41;2011083;29;20025;-59
2022/03/02 00:19:26;;;;;;;24.55;14.32;;;;;;;2.75;83.82;102401.19;2011071;29;20160;-61
2022/03/02 00:20:27;;;;;;;32.77;16.60;;;;;;;2.70;83.83;102407.97;2011090;29;20156;-58
2022/03/02 00:21:27;;;;;;;21.80;14.83;;;;;;;2.66;83.57;102412.22;2011011;29;20475;-60
2022/03/02 00:22:27;;;;;;;33.40;15.93;;;;;;;2.64;83.49;102408.72;2011084;29;20037;-59
2022/03/02 00:23:28;;;;;;;23.83;15.03;;;;;;;2.62;83.79;102405.28;2011003;29;20040;-60
2022/03/02 00:24:29;;;;;;;21.08;14.20;;;;;;;2.60;83.59;102406.94;2017974;29;20463;-60
2022/03/02 00:25:29;;;;;;;26.63;14.90;;;;;;;2.59;83.89;102405.22;2018086;29;20057;-59
2022/03/02 00:26:32;;;;;;;23.60;14.00;;;;;;;2.59;82.93;102410.38;2011054;29;20071;-59
2022/03/02 00:27:33;;;;;;;22.00;13.73;;;;;;;2.59;83.08;102404.38;2011083;29;20105;-59
2022/03/02 00:28:33;;;;;;;20.90;13.20;;;;;;;2.59;83.35;102412.09;2011007;29;20518;-59
2022/03/02 00:29:33;;;;;;;21.88;14.75;;;;;;;2.57;83.22;102402.63;2011076;29;20029;-60
2022/03/02 00:30:34;;;;;;;20.53;14.10;;;;;;;2.56;82.79;102408.63;2010915;29;20484;-59
2022/03/02 00:31:34;;;;;;;20.98;13.35;;;;;;;2.55;83.05;102414.63;2011014;29;20033;-60
2022/03/02 00:32:35;;;;;;;21.63;14.30;;;;;;;2.53;83.42;102411.16;2010945;29;20052;-58
2022/03/02 00:33:35;;;;;;;19.97;13.93;;;;;;;2.51;83.12;102411.97;2010935;29;20049;-60
2022/03/02 00:34:35;;;;;;;21.60;14.43;;;;;;;2.46;82.71;102406.72;2011032;29;20515;-58
2022/03/02 00:35:36;;;;;;;22.53;14.23;;;;;;;2.46;82.74;102408.44;2010886;29;20376;-59
2022/03/02 00:36:36;;;;;;;24.40;14.75;;;;;;;2.44;82.48;102404.13;2010899;29;20025;-59
2022/03/02 00:37:37;;;;;;;22.37;15.10;;;;;;;2.42;82.70;102410.09;2010924;29;20061;-60
2022/03/02 00:38:38;;;;;;;22.27;15.02;;;;;;;2.39;82.68;102407.50;2010895;29;20060;-59
2022/03/02 00:39:38;;;;;;;22.67;15.90;;;;;;;2.36;82.32;102407.44;2010918;29;20495;-60
2022/03/02 00:40:39;;;;;;;18.53;12.60;;;;;;;2.34;81.88;102404.81;2010539;29;20025;-59
2022/03/02 00:41:39;;;;;;;23.65;14.35;;;;;;;2.31;82.09;102405.66;2010887;29;20392;-59
2022/03/02 00:42:40;;;;;;;21.23;14.20;;;;;;;2.31;81.88;102404.75;2010928;29;20037;-59
2022/03/02 00:43:41;;;;;;;21.73;13.85;;;;;;;2.31;81.32;102405.66;2010822;29;20030;-59
2022/03/02 00:44:42;;;;;;;22.08;14.10;;;;;;;2.29;81.67;102403.88;2010860;29;20021;-59
2022/03/02 00:45:43;;;;;;;;;;;;;;;2.32;81.91;102401.34;2010591;29;20018;-59
2022/03/02 00:46:43;;;;;;;18.10;12.68;;;;;;;2.29;81.84;102407.31;2012830;29;19918;-59
2022/03/02 00:47:44;;;;;;;23.55;14.13;;;;;;;2.29;80.88;102402.16;2010905;29;20057;-59
2022/03/02 00:48:44;;;;;;;20.33;13.43;;;;;;;2.27;80.86;102401.28;2010750;29;20051;-60
2022/03/02 00:49:45;;;;;;;22.23;14.82;;;;;;;2.25;80.87;102402.06;2010869;29;20453;-60
2022/03/02 00:50:45;;;;;;;24.17;16.50;;;;;;;2.22;80.60;102396.88;2017983;29;20455;-59
2022/03/02 00:51:46;;;;;;;24.90;15.03;;;;;;;2.20;81.67;102399.44;2017898;29;20360;-60
2022/03/02 00:52:47;;;;;;;23.30;14.70;;;;;;;2.17;81.49;102401.94;2010789;29;20293;-59
2022/03/02 00:53:48;;;;;;;24.20;15.73;;;;;;;2.15;81.22;102395.88;2010771;29;20290;-59
2022/03/02 00:54:48;;;;;;;23.40;15.52;;;;;;;2.13;81.93;102395.88;2010827;29;20480;-60
2022/03/02 00:55:48;;;;;;;22.30;14.77;;;;;;;2.12;82.13;102391.56;2010807;29;20022;-58
2022/03/02 00:56:49;;;;;;;22.03;14.20;;;;;;;2.11;82.62;102397.56;2010771;29;20464;-59
2022/03/02 00:57:49;;;;;;;21.77;14.53;;;;;;;2.10;82.63;102394.94;2010833;29;20164;-59
2022/03/02 00:58:49;;;;;;;25.50;15.97;;;;;;;2.08;83.09;102396.63;2010826;29;20510;-59
2022/03/02 00:59:49;;;;;;;22.80;14.53;;;;;;;2.08;82.92;102396.63;2010818;29;20050;-59
2022/03/02 01:00:50;;;;;;;21.60;14.60;;;;;;;2.05;82.86;102395.72;2010749;29;20029;-58
2022/03/02 01:01:50;;;;;;;20.87;14.10;;;;;;;2.04;82.80;102398.28;2010764;29;20081;-59
2022/03/02 01:02:50;;;;;;;23.40;15.23;;;;;;;2.03;81.97;102394.84;2010676;29;20037;-59
2022/03/02 01:03:50;;;;;;;23.43;16.83;;;;;;;2.05;81.61;102398.31;2010768;29;20026;-59
2022/03/02 01:04:51;;;;;;;22.63;15.90;;;;;;;2.08;81.52;102396.63;2010656;29;20060;-59
2022/03/02 01:05:51;;;;;;;22.17;15.57;;;;;;;2.08;81.23;102391.50;2010729;29;20077;-59
2022/03/02 01:06:51;;;;;;;24.87;16.10;;;;;;;2.05;81.76;102389.69;2017741;29;20056;-60
2022/03/02 01:07:52;;;;;;;23.23;15.87;;;;;;;2.03;81.66;102394.84;2010040;29;20025;-60
2022/03/02 01:08:52;;;;;;;22.50;14.77;;;;;;;2.03;82.10;102384.53;2010111;29;20361;-60
2022/03/02 01:09:52;;;;;;;21.40;14.20;;;;;;;2.03;81.80;102384.53;2010719;29;20436;-59
2022/03/02 01:10:53;;;;;;;21.90;13.57;;;;;;;2.02;81.82;102377.63;2010716;29;20026;-59
2022/03/02 01:11:54;;;;;;;22.87;14.83;;;;;;;2.01;82.21;102370.75;2010709;29;20029;-58
2022/03/02 01:12:54;;;;;;;20.45;13.05;;;;;;;2.01;82.90;102381.06;2010717;29;20029;-58
2022/03/02 01:13:54;;;;;;;23.07;14.37;;;;;;;1.99;83.24;102376.72;2010706;29;20035;-59
2022/03/02 01:14:54;;;;;;;23.13;15.33;;;;;;;1.96;82.89;102379.25;2010719;29;20511;-59
2022/03/02 01:15:55;;;;;;;22.70;14.90;;;;;;;1.91;83.58;102377.44;2010731;29;20093;-60
2022/03/02 01:16:55;;;;;;;21.20;15.00;;;;;;;1.88;83.77;102384.25;2010582;29;20081;-59
2022/03/02 01:17:55;;;;;;;20.83;13.53;;;;;;;1.85;83.64;102382.47;2010671;29;20037;-59
2022/03/02 01:18:55;;;;;;;21.47;14.60;;;;;;;1.84;83.45;102377.31;2010738;29;20033;-59
2022/03/02 01:19:56;;;;;;;24.30;14.50;;;;;;;1.83;83.10;102380.72;2010681;29;20069;-58
2022/03/02 01:20:56;;;;;;;24.83;14.60;;;;;;;1.80;83.10;102374.69;2010637;29;20025;-58
2022/03/02 01:21:56;;;;;;;24.83;15.17;;;;;;;1.77;83.27;102371.16;2010656;29;20041;-60
2022/03/02 01:22:56;;;;;;;21.03;13.60;;;;;;;1.75;83.43;102371.13;2010598;29;20061;-59
2022/03/02 01:23:58;;;;;;;22.93;13.87;;;;;;;1.73;83.45;102370.25;2010660;29;20475;-59
2022/03/02 01:24:58;;;;;;;23.83;14.70;;;;;;;1.72;83.50;102368.53;2010675;29;20032;-59
2022/03/02 01:25:59;;;;;;;22.77;14.30;;;;;;;1.73;82.76;102365.09;2010700;29;20041;-60
2022/03/02 01:27:01;;;;;;;24.40;14.57;;;;;;;1.73;82.74;102365.09;2010672;29;20373;-60
2022/03/02 01:28:01;;;;;;;21.33;13.82;;;;;;;1.73;82.43;102359.97;2009997;29;20380;-60
2022/03/02 01:29:04;;;;;;;26.13;15.50;;;;;;;1.72;82.82;102363.38;2010150;29;20044;-60
2022/03/02 01:30:07;;;;;;;21.48;14.55;;;;;;;1.73;83.30;102366.78;2010580;29;20033;-59
2022/03/02 01:31:07;;;;;;;24.45;15.30;;;;;;;1.71;83.68;102361.63;2010719;29;20060;-59
2022/03/02 01:32:09;;;;;;;24.83;13.27;;;;;;;1.70;83.50;102359.88;2010680;29;20028;-59
2022/03/02 01:33:10;;;;;;;23.42;15.35;;;;;;;1.66;83.35;102358.97;2010605;29;20025;-59
2022/03/02 01:34:10;;;;;;;22.83;14.53;;;;;;;1.65;83.28;102357.22;2010675;29;20041;-59
2022/03/02 01:35:11;;;;;;;21.90;14.13;;;;;;;1.64;83.08;102359.78;2010620;29;20036;-59
2022/03/02 01:36:11;;;;;;;25.52;15.10;;;;;;;1.61;83.03;102355.44;2017602;29;20040;-58
2022/03/02 01:37:13;;;;;;;21.13;14.23;;;;;;;1.59;83.14;102357.13;2017719;29;20035;-59
2022/03/02 01:38:13;;;;;;;20.38;13.27;;;;;;;1.59;83.46;102358.81;2010617;29;20531;-60
2022/03/02 01:39:13;;;;;;;22.80;14.60;;;;;;;1.58;84.04;102357.97;2010612;29;20025;-59
2022/03/02 01:40:15;;;;;;;21.80;14.33;;;;;;;1.57;83.86;102342.50;2010603;29;20033;-59
2022/03/02 01:41:19;;;;;;;;;;;;;;;1.58;83.63;102349.38;2010964;29;20037;-59
2022/03/02 01:42:19;;;;;;;21.48;13.60;;;;;;;1.56;83.01;102351.03;2013176;29;20359;-58
2022/03/02 01:43:20;;;;;;;21.83;14.37;;;;;;;1.56;83.36;102353.59;2010525;29;20029;-59
2022/03/02 01:44:20;;;;;;;20.70;14.37;;;;;;;1.54;83.19;102351.88;2010623;29;20475;-59
2022/03/02 01:45:21;;;;;;;22.60;14.03;;;;;;;1.52;84.32;102353.56;2010598;29;20056;-59
2022/03/02 01:46:22;;;;;;;19.45;12.40;;;;;;;1.48;84.31;102354.34;2010593;29;20034;-58
2022/03/02 01:47:27;;;;;;;20.50;14.00;;;;;;;1.46;84.35;102349.97;2010586;29;20133;-59
2022/03/02 01:48:27;;;;;;;20.00;14.00;;;;;;;1.44;84.44;102351.66;2010453;29;20049;-59
2022/03/02 01:49:27;;;;;;;19.87;14.10;;;;;;;1.39;84.28;102351.56;2010533;29;20459;-59
2022/03/02 01:50:28;;;;;;;24.20;15.17;;;;;;;1.38;83.97;102348.16;2010672;29;20076;-59
2022/03/02 01:51:28;;;;;;;22.67;14.20;;;;;;;1.37;84.60;102353.25;2010602;29;20100;-58
2022/03/02 01:52:30;;;;;;;20.67;13.23;;;;;;;1.35;84.25;102344.63;2010569;29;20444;-60
2022/03/02 01:53:31;;;;;;;20.25;13.15;;;;;;;1.34;84.80;102350.59;2012048;29;20025;-59
2022/03/02 01:54:31;;;;;;;20.52;13.23;;;;;;;1.30;85.05;102349.66;2012138;29;20025;-60
2022/03/02 01:55:32;;;;;;;23.13;14.50;;;;;;;1.30;84.96;102343.66;2012103;29;20166;-59
2022/03/02 01:56:33;;;;;;;20.87;14.37;;;;;;;1.30;85.05;102341.09;2012108;29;20491;-59
2022/03/02 01:57:34;;;;;;;19.27;12.93;;;;;;;1.28;84.95;102347.09;2012128;29;20037;-60
2022/03/02 01:58:34;;;;;;;22.92;14.88;;;;;;;1.29;84.96;102347.94;2012103;29;20025;-59
2022/03/02 01:59:34;;;;;;;24.13;14.07;;;;;;;1.30;84.86;102339.38;2012098;29;20049;-60
2022/03/02 02:00:35;;;;;;;20.83;13.63;;;;;;;1.32;84.60;102345.44;2012091;29;20053;-59
2022/03/02 02:01:35;;;;;;;24.60;15.33;;;;;;;1.36;84.33;102346.34;2012035;29;20104;-59
2022/03/02 02:02:35;;;;;;;22.55;14.13;;;;;;;1.39;84.08;102349.00;2012004;29;20025;-59
2022/03/02 02:03:36;;;;;;;21.67;13.40;;;;;;;1.40;84.25;102341.31;2011930;29;20029;-59
2022/03/02 02:04:36;;;;;;;22.17;14.63;;;;;;;1.41;83.98;102348.19;2019088;29;20475;-59
2022/03/02 02:05:36;;;;;;;22.87;14.03;;;;;;;1.41;83.88;102349.91;2019049;29;20073;-59
2022/03/02 02:06:37;;;;;;;18.57;12.37;;;;;;;1.38;83.51;102342.13;2011407;29;20021;-58
2022/03/02 02:07:37;;;;;;;20.35;13.55;;;;;;;1.37;83.25;102340.38;2011443;29;20516;-59
2022/03/02 02:08:38;;;;;;;21.70;13.00;;;;;;;1.38;83.48;102336.97;2012041;29;20065;-59
2022/03/02 02:09:38;;;;;;;20.57;13.87;;;;;;;1.37;83.84;102341.25;2012017;29;20033;-59
2022/03/02 02:10:39;;;;;;;18.52;12.38;;;;;;;1.37;83.45;102340.38;2011956;29;20420;-58
2022/03/02 02:11:39;;;;;;;21.93;14.23;;;;;;;1.37;83.44;102340.38;2011991;29;20523;-59
2022/03/02 02:12:40;;;;;;;21.25;14.57;;;;;;;1.38;83.44;102334.41;2011974;29;20114;-59
2022/03/02 02:13:41;;;;;;;22.75;14.13;;;;;;;1.38;83.06;102336.97;2011957;29;20101;-59
2022/03/02 02:14:42;;;;;;;25.02;13.93;;;;;;;1.38;82.93;102331.81;2011939;29;20476;-59
2022/03/02 02:15:43;;;;;;;20.45;13.70;;;;;;;1.41;83.51;102337.03;2011943;29;20416;-59
2022/03/02 02:16:43;;;;;;;22.90;12.75;;;;;;;1.43;82.79;102330.19;2011922;29;20036;-59
2022/03/02 02:17:43;;;;;;;20.37;13.83;;;;;;;1.44;82.83;102329.38;2011892;29;20440;-60
2022/03/02 02:18:43;;;;;;;21.23;13.73;;;;;;;1.47;82.69;102326.00;2011873;29;20101;-59
2022/03/02 02:19:44;;;;;;;18.43;13.50;;;;;;;1.50;83.33;102326.91;2018931;29;20029;-60
2022/03/02 02:20:44;;;;;;;22.20;12.90;;;;;;;1.51;83.67;102328.66;2019015;29;20073;-59
2022/03/02 02:21:46;;;;;;;19.73;13.60;;;;;;;1.50;83.01;102333.75;2011902;29;20041;-61
2022/03/02 02:22:47;;;;;;;19.92;12.65;;;;;;;1.48;82.85;102330.31;2011907;29;20101;-59
2022/03/02 02:23:48;;;;;;;20.67;14.05;;;;;;;1.47;83.25;102326.84;2011898;29;20052;-59
2022/03/02 02:24:48;;;;;;;20.05;14.20;;;;;;;1.48;83.02;102323.47;2011906;29;20025;-59
2022/03/02 02:25:49;;;;;;;23.83;13.77;;;;;;;1.48;82.65;102326.03;2011882;29;20416;-60
2022/03/02 02:26:49;;;;;;;21.07;14.00;;;;;;;1.49;83.51;102332.91;2011975;29;20025;-59
2022/03/02 02:27:49;;;;;;;20.40;13.00;;;;;;;1.48;83.16;102331.19;2011875;29;20041;-58
2022/03/02 02:28:50;;;;;;;21.07;13.63;;;;;;;1.50;83.62;102326.91;2011914;29;20029;-59
2022/03/02 02:29:50;;;;;;;18.57;12.57;;;;;;;1.48;83.21;102327.72;2018870;29;20083;-59
2022/03/02 02:30:54;;;;;;;22.90;13.83;;;;;;;1.49;83.55;102329.47;2011146;29;20040;-60
2022/03/02 02:31:56;;;;;;;22.38;13.63;;;;;;;1.48;83.41;102320.00;2011293;29;20388;-59
2022/03/02 02:32:57;;;;;;;24.20;13.35;;;;;;;1.48;83.21;102323.47;2011854;29;20086;-60
2022/03/02 02:33:57;;;;;;;22.75;12.95;;;;;;;1.49;83.25;102324.31;2011812;29;20508;-59
2022/03/02 02:34:58;;;;;;;21.67;14.20;;;;;;;1.50;82.84;102321.78;2011819;29;20034;-59
2022/03/02 02:35:58;;;;;;;21.58;13.07;;;;;;;1.52;82.58;102324.38;2011898;29;20041;-60
2022/03/02 02:36:59;;;;;;;19.63;13.43;;;;;;;1.53;83.08;102320.97;2011826;29;20399;-59
2022/03/02 02:37:59;;;;;;;23.80;14.60;;;;;;;1.54;82.87;102317.56;2011969;29;20516;-59
2022/03/02 02:39:00;;;;;;;18.43;11.97;;;;;;;1.58;82.62;102321.06;2011892;29;20033;-58
2022/03/02 02:40:12;;;;;;;21.65;13.20;;;;;;;1.57;82.05;102316.75;2018829;29;20040;-59
2022/03/02 02:41:15;;;;;;;18.02;11.75;;;;;;;1.59;81.79;102315.06;2017483;29;20108;-58
2022/03/02 02:42:16;;;;;;;21.60;13.45;;;;;;;1.59;82.22;102315.06;2011676;29;20036;-58
2022/03/02 02:43:21;;;;;;;24.13;13.73;;;;;;;1.58;82.22;102313.34;2011616;29;20383;-59
2022/03/02 02:44:21;;;;;;;23.98;14.82;;;;;;;1.58;82.68;102315.91;2018863;29;20028;-59
2022/03/02 02:45:23;;;;;;;22.30;13.87;;;;;;;1.58;82.76;102315.91;2018837;29;20028;-59
2022/03/02 02:46:23;;;;;;;20.58;13.30;;;;;;;1.57;82.98;102311.59;2011733;29;20455;-59
2022/03/02 02:47:23;;;;;;;20.43;13.50;;;;;;;1.56;82.99;102310.72;2011692;29;20070;-59
2022/03/02 02:48:24;;;;;;;21.50;14.40;;;;;;;1.56;83.26;102312.44;2011601;29;20404;-59
2022/03/02 02:49:25;;;;;;;21.27;13.60;;;;;;;1.53;83.11;102308.09;2018766;29;20024;-59
2022/03/02 02:50:28;;;;;;;21.40;13.57;;;;;;;1.53;82.89;102302.94;2018832;29;20025;-59
2022/03/02 02:51:28;;;;;;;19.73;12.45;;;;;;;1.52;82.61;102308.94;2011702;29;20028;-58
2022/03/02 02:52:37;;;;;;;22.00;13.37;;;;;;;1.52;82.67;102304.66;2018713;29;20032;-59
2022/03/02 02:53:37;;;;;;;18.55;12.32;;;;;;;1.53;83.06;102300.38;2011001;29;20440;-59
2022/03/02 02:54:37;;;;;;;18.57;13.40;;;;;;;1.53;82.79;102305.53;2011034;29;20031;-60
2022/03/02 02:55:40;;;;;;;21.40;13.87;;;;;;;1.52;83.14;102309.81;2011662;29;20097;-59
2022/03/02 02:56:40;;;;;;;22.42;14.07;;;;;;;1.50;82.45;102306.34;2011728;29;20154;-60
2022/03/02 02:57:41;;;;;;;20.03;13.23;;;;;;;1.50;82.60;102311.47;2011682;29;20432;-59
2022/03/02 02:58:41;;;;;;;23.73;12.45;;;;;;;1.49;82.27;102314.91;2011665;29;20025;-59
2022/03/02 02:59:42;;;;;;;22.67;13.80;;;;;;;1.50;82.37;102311.47;2011647;29;20096;-58
2022/03/02 03:00:44;;;;;;;21.38;13.10;;;;;;;1.51;82.63;102313.22;2011638;29;20053;-59
2022/03/02 03:01:45;;;;;;;18.52;11.98;;;;;;;1.50;82.30;102314.06;2011603;29;20048;-58
2022/03/02 03:02:48;;;;;;;23.23;14.00;;;;;;;1.49;82.48;102314.91;2011659;29;20049;-59
2022/03/02 03:03:49;;;;;;;19.70;13.15;;;;;;;1.50;82.03;102318.31;2011351;29;20030;-59
2022/03/02 03:04:49;;;;;;;23.48;14.55;;;;;;;1.50;82.51;102316.63;2011660;29;20029;-57
2022/03/02 03:05:51;;;;;;;21.30;13.53;;;;;;;1.50;81.93;102311.47;2011734;29;20419;-59
2022/03/02 03:06:51;;;;;;;24.65;13.63;;;;;;;1.49;81.14;102307.19;2011502;29;20033;-58
2022/03/02 03:07:55;;;;;;;21.97;14.07;;;;;;;1.51;81.15;102307.22;2011697;29;20037;-59
2022/03/02 03:08:56;;;;;;;20.30;12.45;;;;;;;1.51;81.01;102308.06;2011805;29;20038;-59
2022/03/02 03:09:56;;;;;;;20.23;12.95;;;;;;;1.53;81.78;102315.81;2011742;29;20029;-59
2022/03/02 03:10:57;;;;;;;20.40;12.53;;;;;;;1.52;81.36;102309.81;2011892;29;20480;-58
2022/03/02 03:11:57;;;;;;;22.50;13.57;;;;;;;1.52;81.35;102314.09;2011904;29;20498;-58
2022/03/02 03:12:57;;;;;;;21.57;12.97;;;;;;;1.50;81.20;102314.06;2011853;29;20058;-59
2022/03/02 03:13:57;;;;;;;21.63;13.20;;;;;;;1.49;81.54;102307.19;2011732;29;20093;-59
2022/03/02 03:14:57;;;;;;;21.40;13.23;;;;;;;1.48;81.69;102302.88;2011575;29;20056;-59
2022/03/02 03:15:58;;;;;;;17.73;11.63;;;;;;;1.47;81.82;102310.56;2011585;29;20037;-60
2022/03/02 03:16:58;;;;;;;23.30;14.60;;;;;;;1.44;82.34;102306.22;2011550;29;20065;-60
2022/03/02 03:17:58;;;;;;;20.67;13.50;;;;;;;1.41;82.65;102304.44;2011564;29;20063;-59
2022/03/02 03:18:59;;;;;;;21.93;12.90;;;;;;;1.41;83.47;102306.16;2011500;29;20188;-59
2022/03/02 03:19:59;;;;;;;21.47;14.33;;;;;;;1.41;83.72;102307.00;2011591;29;20097;-59
2022/03/02 03:21:00;;;;;;;20.63;13.35;;;;;;;1.43;83.97;102304.47;2011557;29;20484;-59
2022/03/02 03:22:07;;;;;;;18.83;13.33;;;;;;;1.47;83.98;102300.28;2018581;29;20076;-59
2022/03/02 03:23:08;;;;;;;20.90;13.75;;;;;;;1.46;83.91;102304.53;2017815;29;20059;-59
2022/03/02 03:24:08;;;;;;;20.65;13.05;;;;;;;1.47;83.17;102295.97;2011525;29;20544;-59
2022/03/02 03:25:12;;;;;;;18.25;11.77;;;;;;;1.48;83.33;102300.31;2011486;29;20105;-59
2022/03/02 03:26:12;;;;;;;19.77;12.65;;;;;;;1.48;82.95;102295.16;2011478;29;20021;-59
2022/03/02 03:27:13;;;;;;;23.53;14.63;;;;;;;1.50;83.32;102306.34;2011494;29;20104;-60
2022/03/02 03:28:13;;;;;;;20.27;13.03;;;;;;;1.51;82.55;102300.34;2011476;29;20472;-58
2022/03/02 03:29:13;;;;;;;18.63;11.90;;;;;;;1.51;82.27;102302.91;2011409;29;20082;-58
2022/03/02 03:30:15;;;;;;;22.13;13.07;;;;;;;1.52;81.73;102294.38;2011491;29;20033;-60
2022/03/02 03:31:15;;;;;;;19.50;12.82;;;;;;;1.53;82.28;102298.69;2011364;29;20068;-60
2022/03/02 03:32:16;;;;;;;23.27;14.03;;;;;;;1.55;81.72;102298.72;2011440;29;20029;-59
2022/03/02 03:33:16;;;;;;;21.20;12.77;;;;;;;1.55;81.49;102303.84;2011429;29;20144;-59
2022/03/02 03:34:16;;;;;;;20.03;11.87;;;;;;;1.57;80.95;102299.59;2011491;29;20041;-59
2022/03/02 03:35:20;;;;;;;17.90;12.77;;;;;;;1.58;80.77;102303.03;2011418;29;20025;-59
2022/03/02 03:36:20;;;;;;;18.45;12.48;;;;;;;1.58;80.63;102303.03;2011390;29;20293;-60
2022/03/02 03:37:20;;;;;;;19.13;13.00;;;;;;;1.59;79.75;102299.63;2011410;29;20550;-59
2022/03/02 03:38:21;;;;;;;18.10;12.13;;;;;;;1.60;80.47;102298.78;2011436;29;20066;-60
2022/03/02 03:39:21;;;;;;;22.73;13.37;;;;;;;1.60;79.57;102306.50;2011405;29;20109;-60
2022/03/02 03:40:22;;;;;;;20.97;12.50;;;;;;;1.60;79.29;102307.38;2011402;29;20459;-59
2022/03/02 03:41:22;;;;;;;21.92;12.18;;;;;;;1.59;79.09;102300.50;2011384;29;20388;-58
2022/03/02 03:42:23;;;;;;;22.13;13.60;;;;;;;1.60;78.92;102306.50;2011373;29;20030;-60
2022/03/02 03:43:23;;;;;;;20.53;12.20;;;;;;;1.61;79.02;102303.94;2018284;29;20048;-59
2022/03/02 03:44:24;;;;;;;19.50;11.87;;;;;;;1.62;79.36;102300.56;2018441;29;20325;-59
2022/03/02 03:45:24;;;;;;;21.33;13.05;;;;;;;1.63;78.96;102303.97;2011340;29;20452;-59
2022/03/02 03:46:25;;;;;;;22.13;13.63;;;;;;;1.63;80.09;102302.28;2011350;29;20029;-59
2022/03/02 03:47:25;;;;;;;21.48;13.15;;;;;;;1.63;80.37;102301.41;2011341;29;20416;-59
2022/03/02 03:48:25;;;;;;;18.07;12.47;;;;;;;1.63;79.99;102296.25;2011166;29;20053;-60
2022/03/02 03:49:26;;;;;;;24.53;13.03;;;;;;;1.62;79.96;102292.84;2011371;29;20029;-59
2022/03/02 03:50:26;;;;;;;23.23;12.80;;;;;;;1.62;79.69;102297.09;2011338;29;20060;-59
2022/03/02 03:51:26;;;;;;;18.93;12.10;;;;;;;1.62;79.39;102294.53;2011361;29;20025;-59
2022/03/02 03:52:27;;;;;;;20.13;12.27;;;;;;;1.60;79.21;102301.34;2011335;29;20026;-60
2022/03/02 03:53:27;;;;;;;19.37;12.73;;;;;;;1.59;79.09;102297.03;2011267;29;20037;-59
2022/03/02 03:54:28;;;;;;;18.30;11.60;;;;;;;1.59;78.98;102295.34;2011343;29;20104;-60
2022/03/02 03:55:28;;;;;;;16.17;11.40;;;;;;;1.61;79.09;102292.81;2011247;29;20112;-59
2022/03/02 03:56:30;;;;;;;19.33;12.83;;;;;;;1.62;79.34;102284.25;2011291;29;20040;-60
2022/03/02 03:57:30;;;;;;;20.27;12.50;;;;;;;1.62;78.54;102294.53;2011220;29;20052;-59
2022/03/02 03:58:30;;;;;;;17.60;11.93;;;;;;;1.61;78.40;102292.81;2011264;29;20025;-59
2022/03/02 03:59:31;;;;;;;20.77;12.30;;;;;;;1.60;78.99;102293.63;2011321;29;20026;-59
2022/03/02 04:00:31;;;;;;;19.73;12.27;;;;;;;1.58;79.19;102292.75;2011271;29;20396;-59
2022/03/02 04:01:32;;;;;;;17.95;11.52;;;;;;;1.56;79.75;102289.25;2011188;29;20056;-60
2022/03/02 04:02:32;;;;;;;20.00;11.10;;;;;;;1.57;79.55;102291.03;2011258;29;20032;-59
2022/03/02 04:03:35;;;;;;;22.23;12.73;;;;;;;1.54;79.23;102287.53;2011125;29;20393;-59
2022/03/02 04:04:35;;;;;;;20.05;12.02;;;;;;;1.54;78.84;102292.69;2011228;29;20100;-59
2022/03/02 04:05:35;;;;;;;21.37;11.63;;;;;;;1.53;79.83;102285.81;2011209;29;20033;-60
2022/03/02 04:06:35;;;;;;;18.20;11.60;;;;;;;1.53;79.22;102285.81;2011199;29;20081;-59
2022/03/02 04:07:36;;;;;;;17.70;11.73;;;;;;;1.52;79.77;102284.09;2011061;29;20109;-58
2022/03/02 04:08:36;;;;;;;15.73;11.40;;;;;;;1.51;79.11;102282.31;2011157;29;20052;-59
2022/03/02 04:09:37;;;;;;;17.77;11.47;;;;;;;1.52;79.72;102289.22;2011150;29;20025;-59
2022/03/02 04:10:37;;;;;;;18.43;11.93;;;;;;;1.53;79.21;102280.66;2011135;29;20109;-59
2022/03/02 04:11:38;;;;;;;21.57;11.87;;;;;;;1.56;78.21;102284.13;2011132;29;20025;-59
2022/03/02 04:12:38;;;;;;;22.65;12.18;;;;;;;1.60;77.48;102288.47;2011138;29;20021;-59
2022/03/02 04:13:39;;;;;;;20.10;12.80;;;;;;;1.62;76.86;102279.09;2011139;29;20074;-59
2022/03/02 04:14:40;;;;;;;17.87;11.37;;;;;;;1.64;77.55;102282.56;2011176;29;20029;-59
2022/03/02 04:15:40;;;;;;;18.70;11.93;;;;;;;1.65;76.88;102279.16;2010488;29;20489;-58
2022/03/02 04:16:40;;;;;;;18.57;11.47;;;;;;;1.71;75.42;102279.25;2011116;29;20022;-59
2022/03/02 04:17:41;;;;;;;19.27;11.77;;;;;;;1.76;75.10;102277.66;2011053;29;20373;-59
2022/03/02 04:18:41;;;;;;;18.40;11.73;;;;;;;1.79;75.48;102277.66;2011102;29;20029;-60
2022/03/02 04:19:41;;;;;;;21.93;11.37;;;;;;;1.76;75.99;102272.50;2011017;29;20025;-59
2022/03/02 04:20:42;;;;;;;16.77;11.57;;;;;;;1.76;76.63;102269.03;2011084;29;20502;-59
2022/03/02 04:21:42;;;;;;;16.93;11.07;;;;;;;1.72;77.61;102270.72;2011073;29;20034;-59
2022/03/02 04:22:42;;;;;;;18.03;12.70;;;;;;;1.66;77.18;102265.44;2011110;29;20052;-59
2022/03/02 04:23:43;;;;;;;16.33;11.33;;;;;;;1.62;77.22;102269.69;2011024;29;20125;-59
2022/03/02 04:24:43;;;;;;;18.13;12.10;;;;;;;1.59;77.64;102266.16;2011085;29;20500;-59
2022/03/02 04:25:43;;;;;;;21.07;11.77;;;;;;;1.57;77.53;102266.13;2011064;29;20480;-59
2022/03/02 04:26:44;;;;;;;17.77;12.27;;;;;;;1.59;77.29;102268.75;2011053;29;20506;-60
2022/03/02 04:27:44;;;;;;;17.83;12.15;;;;;;;1.57;77.39;102260.13;2011017;29;20018;-59
2022/03/02 04:28:44;;;;;;;16.57;11.43;;;;;;;1.54;77.71;102264.38;2011051;29;20044;-59
2022/03/02 04:29:45;;;;;;;20.97;12.60;;;;;;;1.52;77.31;102265.19;2010996;29;20029;-60
2022/03/02 04:30:45;;;;;;;19.70;11.63;;;;;;;1.50;77.78;102260.00;2011004;29;20037;-59
2022/03/02 04:31:45;;;;;;;20.33;13.23;;;;;;;1.49;77.48;102260.88;2010921;29;20071;-60
2022/03/02 04:32:46;;;;;;;15.65;10.88;;;;;;;1.47;78.67;102264.25;2010939;29;20048;-59
2022/03/02 04:33:46;;;;;;;22.93;12.77;;;;;;;1.45;77.53;102261.66;2010987;29;20069;-60
2022/03/02 04:34:47;;;;;;;17.50;12.13;;;;;;;1.43;77.37;102263.31;2010981;29;20021;-59
2022/03/02 04:35:47;;;;;;;18.63;11.70;;;;;;;1.41;77.29;102255.56;2018011;29;20380;-60
2022/03/02 04:36:48;;;;;;;18.25;11.45;;;;;;;1.39;76.68;102257.25;2018044;29;20021;-60
2022/03/02 04:37:48;;;;;;;17.33;10.65;;;;;;;1.41;76.78;102254.72;2010924;29;20488;-60
2022/03/02 04:38:48;;;;;;;16.00;9.90;;;;;;;1.40;76.57;102256.41;2010987;29;20073;-59